Time;durP1;ratioP1;P1;durP2;ratioP2;P2;SDS_P1;SDS_P2;PMS_P1;PMS_P2;Temp;Humidity;BMP_temperature;BMP_pressure;BME280_temperature;BME280_humidity;BME280_pressure;Samples;Min_cycle;Max_cycle;Signal;HPM_P1;HPM_P2
2022/10/26 00:00:45;;;;;;;7.25;2.92;;;17.20;98.20;;;;;;5053732;28;20104;-72
2022/10/26 00:03:11;;;;;;;12.30;3.45;;;17.20;98.20;;;;;;5054036;28;20445;-72
2022/10/26 00:05:37;;;;;;;5.30;2.97;;;17.20;98.30;;;;;;5053947;28;20028;-73
2022/10/26 00:08:03;;;;;;;8.35;3.13;;;17.20;98.20;;;;;;5053548;28;20017;-73
2022/10/26 00:10:29;;;;;;;6.85;3.13;;;17.20;98.20;;;;;;5052497;28;20037;-73
2022/10/26 00:12:54;;;;;;;6.80;2.72;;;17.20;98.20;;;;;;5053855;28;20021;-73
2022/10/26 00:15:20;;;;;;;5.75;2.40;;;17.20;98.10;;;;;;5053401;28;20055;-72
2022/10/26 00:17:47;;;;;;;7.90;3.00;;;17.10;98.30;;;;;;5053709;28;20055;-71
2022/10/26 00:20:13;;;;;;;7.40;3.30;;;17.00;98.40;;;;;;5054249;28;20482;-73
2022/10/26 00:22:39;;;;;;;8.70;3.10;;;17.10;98.30;;;;;;5053270;28;20029;-72
2022/10/26 00:25:05;;;;;;;9.27;2.78;;;17.20;98.20;;;;;;5053727;28;20021;-73
2022/10/26 00:27:33;;;;;;;5.75;2.63;;;17.30;98.00;;;;;;5053546;28;20036;-72
2022/10/26 00:29:59;;;;;;;7.88;2.70;;;17.00;98.40;;;;;;5053225;28;20033;-73
2022/10/26 00:32:26;;;;;;;4.53;2.55;;;16.90;98.70;;;;;;5053181;28;20135;-73
2022/10/26 00:34:52;;;;;;;10.13;2.75;;;16.90;98.70;;;;;;5053012;28;20021;-73
2022/10/26 00:37:17;;;;;;;8.75;2.50;;;17.00;98.60;;;;;;5053234;28;20075;-72
2022/10/26 00:39:43;;;;;;;8.35;2.65;;;17.10;98.40;;;;;;5053314;28;20033;-73
2022/10/26 00:42:14;;;;;;;6.63;2.40;;;17.30;98.30;;;;;;5053241;28;20032;-71
2022/10/26 00:44:42;;;;;;;6.82;2.63;;;17.40;97.90;;;;;;5053020;28;20052;-73
2022/10/26 00:47:40;;;;;;;6.85;2.50;;;17.60;97.60;;;;;;5052957;28;20590;-73
2022/10/26 00:50:20;;;;;;;9.18;2.88;;;17.60;97.60;;;;;;5053188;28;20033;-73
2022/10/26 00:52:46;;;;;;;4.88;2.30;;;17.40;97.70;;;;;;5053148;28;20025;-73
2022/10/26 00:55:12;;;;;;;7.30;2.78;;;17.50;97.70;;;;;;5052081;28;20527;-73
2022/10/26 00:57:38;;;;;;;6.18;2.83;;;17.60;97.70;;;;;;5052943;28;20049;-74
2022/10/26 01:00:06;;;;;;;11.13;2.92;;;17.60;97.50;;;;;;5052843;28;20105;-73
2022/10/26 01:02:32;;;;;;;6.35;2.72;;;17.60;97.80;;;;;;5052976;28;20025;-73
2022/10/26 01:05:00;;;;;;;8.40;2.67;;;17.60;97.60;;;;;;5053171;28;20428;-73
2022/10/26 01:07:26;;;;;;;6.13;2.28;;;17.60;97.60;;;;;;5052893;28;20055;-73
2022/10/26 01:09:53;;;;;;;4.53;2.05;;;17.60;97.50;;;;;;5052965;28;20033;-73
2022/10/26 01:12:19;;;;;;;6.13;2.50;;;17.60;97.60;;;;;;5053026;28;20025;-73
2022/10/26 01:14:45;;;;;;;5.50;2.28;;;17.60;97.60;;;;;;5052538;28;20047;-73
2022/10/26 01:17:10;;;;;;;5.35;2.38;;;17.60;97.60;;;;;;5052898;28;20078;-73
2022/10/26 01:19:52;;;;;;;7.90;2.47;;;17.60;97.70;;;;;;5052992;28;20107;-73
2022/10/26 01:22:22;;;;;;;5.72;2.10;;;17.60;97.70;;;;;;5052176;28;20097;-72
2022/10/26 01:24:54;;;;;;;8.98;2.28;;;17.60;97.70;;;;;;5052949;28;20032;-73
2022/10/26 01:27:31;;;;;;;8.95;2.25;;;17.60;97.60;;;;;;5052412;28;20028;-73
2022/10/26 01:30:19;;;;;;;5.78;2.17;;;17.60;97.60;;;;;;5051486;28;20135;-71
2022/10/26 01:33:21;;;;;;;8.10;2.58;;;17.50;97.70;;;;;;5051497;28;20024;-73
2022/10/26 01:36:08;;;;;;;6.55;2.42;;;17.50;97.80;;;;;;5052711;28;20543;-72
2022/10/26 01:38:39;;;;;;;11.13;2.15;;;17.50;97.70;;;;;;5051140;28;20037;-72
2022/10/26 01:41:22;;;;;;;6.22;2.90;;;17.50;97.60;;;;;;5052734;28;20040;-70
2022/10/26 01:44:13;;;;;;;10.15;2.50;;;17.50;97.70;;;;;;5052270;28;20036;-71
2022/10/26 01:46:42;;;;;;;4.72;2.22;;;17.50;97.70;;;;;;5055279;28;20112;-72
2022/10/26 01:49:10;;;;;;;5.18;2.38;;;17.50;97.70;;;;;;5056436;28;20392;-71
2022/10/26 01:51:39;;;;;;;6.85;1.90;;;17.60;97.70;;;;;;5056656;28;20485;-73
2022/10/26 01:54:05;;;;;;;5.85;2.22;;;17.60;97.70;;;;;;5056202;28;20104;-72
2022/10/26 01:56:35;;;;;;;5.50;1.90;;;17.60;97.70;;;;;;5056070;28;20108;-71
2022/10/26 01:59:19;;;;;;;5.97;2.30;;;17.60;97.70;;;;;;5055023;28;20028;-70
2022/10/26 02:01:45;;;;;;;5.20;2.08;;;17.50;97.70;;;;;;5056447;28;20025;-73
2022/10/26 02:04:19;;;;;;;4.70;1.65;;;17.50;97.90;;;;;;5054750;28;20027;-73
2022/10/26 02:06:57;;;;;;;4.03;1.63;;;17.50;98.10;;;;;;5056735;28;20049;-72
2022/10/26 02:09:28;;;;;;;4.95;1.67;;;17.50;97.90;;;;;;5054625;28;20429;-74
2022/10/26 02:11:55;;;;;;;9.30;2.08;;;17.50;97.90;;;;;;5056026;28;20469;-73
2022/10/26 02:14:38;;;;;;;4.70;1.88;;;17.50;97.90;;;;;;5056066;28;20025;-73
2022/10/26 02:17:11;;;;;;;6.95;2.05;;;17.40;98.10;;;;;;5055978;28;20024;-73
2022/10/26 02:19:42;;;;;;;6.55;1.70;;;17.50;98.00;;;;;;5056101;28;20436;-71
2022/10/26 02:22:20;;;;;;;5.15;1.88;;;17.50;97.90;;;;;;5055917;28;20025;-73
2022/10/26 02:24:49;;;;;;;5.55;1.80;;;17.50;97.80;;;;;;5055933;28;20029;-69
2022/10/26 02:27:20;;;;;;;9.13;1.98;;;17.50;97.80;;;;;;5055374;28;20021;-70
2022/10/26 02:29:49;;;;;;;5.43;1.73;;;17.60;97.80;;;;;;5055743;28;20025;-73
2022/10/26 02:32:17;;;;;;;6.00;1.90;;;17.50;97.80;;;;;;5054539;28;20013;-69
2022/10/26 02:34:46;;;;;;;6.45;2.15;;;17.60;97.80;;;;;;5055576;28;20481;-73
2022/10/26 02:37:14;;;;;;;5.78;2.17;;;17.60;97.70;;;;;;5056146;28;20017;-73
2022/10/26 02:39:40;;;;;;;5.47;1.67;;;17.60;97.70;;;;;;5055427;28;20035;-73
2022/10/26 02:42:08;;;;;;;8.30;2.45;;;17.60;97.80;;;;;;5055556;28;20477;-73
2022/10/26 02:44:43;;;;;;;6.13;2.10;;;17.60;97.80;;;;;;5055631;28;20500;-73
2022/10/26 02:47:10;;;;;;;7.93;1.83;;;17.60;97.80;;;;;;5055389;28;20075;-73
2022/10/26 02:49:36;;;;;;;9.55;2.15;;;17.60;97.80;;;;;;5055387;28;20098;-70
2022/10/26 02:52:10;;;;;;;8.40;2.22;;;17.60;97.90;;;;;;5055519;28;20025;-74
2022/10/26 02:54:50;;;;;;;7.80;2.00;;;17.60;97.80;;;;;;5054899;28;20162;-70
2022/10/26 02:57:22;;;;;;;5.97;2.05;;;17.60;97.90;;;;;;5054843;28;20028;-73
2022/10/26 02:59:48;;;;;;;13.45;2.65;;;17.60;97.70;;;;;;5055401;28;20021;-70
2022/10/26 03:02:16;;;;;;;8.68;2.22;;;17.60;97.80;;;;;;5055172;28;20025;-73
2022/10/26 03:04:42;;;;;;;7.32;2.03;;;17.60;97.80;;;;;;5055012;28;20051;-72
2022/10/26 03:07:08;;;;;;;7.65;2.25;;;17.60;97.90;;;;;;5055121;28;20529;-71
2022/10/26 03:09:33;;;;;;;5.50;1.77;;;17.60;97.80;;;;;;5054662;28;20567;-72
2022/10/26 03:11:59;;;;;;;4.65;1.60;;;17.60;97.80;;;;;;5054011;28;20025;-72
2022/10/26 03:14:24;;;;;;;6.53;2.00;;;17.60;97.90;;;;;;5051304;28;20028;-73
2022/10/26 03:16:50;;;;;;;5.75;1.65;;;17.50;98.20;;;;;;5041606;28;20053;-73
2022/10/26 03:19:16;;;;;;;5.60;1.98;;;17.60;97.80;;;;;;5032062;28;20474;-72
2022/10/26 03:21:41;;;;;;;5.68;2.20;;;17.60;97.80;;;;;;5033948;28;20500;-74
2022/10/26 03:24:08;;;;;;;5.53;2.10;;;17.60;97.80;;;;;;5034659;28;20087;-73
2022/10/26 03:26:33;;;;;;;4.30;1.75;;;17.60;97.80;;;;;;5034528;28;20092;-72
2022/10/26 03:28:59;;;;;;;5.82;1.92;;;17.60;98.00;;;;;;5034817;28;20470;-73
2022/10/26 03:31:24;;;;;;;4.05;1.55;;;17.60;97.90;;;;;;5045341;28;20032;-72
2022/10/26 03:33:50;;;;;;;4.18;1.75;;;17.60;97.90;;;;;;5051115;28;20025;-73
2022/10/26 03:36:16;;;;;;;8.02;1.83;;;17.50;97.90;;;;;;5045575;28;20036;-70
2022/10/26 03:38:41;;;;;;;3.75;1.85;;;17.50;98.00;;;;;;5051674;28;20278;-71
2022/10/26 03:41:07;;;;;;;6.50;2.00;;;17.50;98.00;;;;;;5041858;28;20052;-71
2022/10/26 03:43:33;;;;;;;4.95;1.80;;;17.50;98.00;;;;;;5041930;28;20026;-73
2022/10/26 03:45:58;;;;;;;7.60;1.83;;;17.50;98.10;;;;;;5045030;28;20385;-69
2022/10/26 03:48:24;;;;;;;5.22;1.70;;;17.50;98.10;;;;;;5047166;28;20466;-73
2022/10/26 03:50:49;;;;;;;4.47;1.60;;;17.50;98.00;;;;;;5053681;28;20428;-70
2022/10/26 03:53:15;;;;;;;4.70;1.20;;;17.60;98.00;;;;;;5053869;28;20025;-70
2022/10/26 03:55:43;;;;;;;4.93;1.65;;;17.50;98.00;;;;;;5043738;28;20024;-69
2022/10/26 03:58:09;;;;;;;9.18;1.83;;;17.50;98.20;;;;;;5040503;28;20100;-69
2022/10/26 04:00:35;;;;;;;7.75;1.95;;;17.60;98.00;;;;;;5050390;28;20057;-70
2022/10/26 04:03:00;;;;;;;7.63;2.00;;;17.60;98.00;;;;;;5051300;28;20025;-70
2022/10/26 04:05:27;;;;;;;8.52;1.90;;;17.50;98.10;;;;;;5053704;28;20470;-71
2022/10/26 04:07:59;;;;;;;9.88;2.05;;;17.50;98.10;;;;;;5041792;28;20120;-70
2022/10/26 04:10:26;;;;;;;4.57;1.45;;;17.50;98.10;;;;;;5033159;28;20041;-70
2022/10/26 04:12:53;;;;;;;4.15;1.30;;;17.60;98.10;;;;;;5032598;28;20021;-69
2022/10/26 04:15:19;;;;;;;6.78;1.83;;;17.60;98.00;;;;;;5033559;28;20029;-69
2022/10/26 04:17:44;;;;;;;4.90;1.48;;;17.60;98.10;;;;;;5033893;28;20025;-71
2022/10/26 04:20:10;;;;;;;6.45;1.95;;;17.50;98.10;;;;;;5033895;28;20044;-70
2022/10/26 04:22:36;;;;;;;4.28;1.80;;;17.60;98.10;;;;;;5033420;28;20136;-70
2022/10/26 04:25:03;;;;;;;5.90;1.63;;;17.60;98.10;;;;;;5033874;28;20047;-69
2022/10/26 04:27:29;;;;;;;2.88;1.33;;;17.60;98.10;;;;;;5033313;28;20037;-70
2022/10/26 04:29:54;;;;;;;4.20;1.40;;;17.60;98.00;;;;;;5033643;28;20041;-69
2022/10/26 04:32:20;;;;;;;8.52;1.63;;;17.60;98.00;;;;;;5033590;28;20120;-69
2022/10/26 04:34:48;;;;;;;4.88;1.55;;;17.60;98.00;;;;;;5033375;28;20112;-72
2022/10/26 04:37:13;;;;;;;6.60;1.83;;;17.60;98.00;;;;;;5031856;28;20470;-70
2022/10/26 04:39:39;;;;;;;4.30;1.73;;;17.60;98.00;;;;;;5033274;28;20116;-70
2022/10/26 04:42:04;;;;;;;8.13;1.92;;;17.60;98.10;;;;;;5033358;28;20106;-70
2022/10/26 04:44:30;;;;;;;7.85;1.80;;;17.60;98.10;;;;;;5033408;28;20040;-72
2022/10/26 04:46:55;;;;;;;4.47;1.60;;;17.60;98.10;;;;;;5033293;28;20466;-71
2022/10/26 04:49:21;;;;;;;4.90;1.50;;;17.60;98.10;;;;;;5033211;28;20029;-72
2022/10/26 04:51:47;;;;;;;6.30;1.73;;;17.60;98.10;;;;;;5034492;28;20480;-71
2022/10/26 04:54:12;;;;;;;3.30;1.35;;;17.60;98.10;;;;;;5051397;28;20032;-72
2022/10/26 04:56:38;;;;;;;16.63;2.65;;;17.60;98.10;;;;;;5051288;28;20032;-72
2022/10/26 04:59:03;;;;;;;4.57;1.42;;;17.60;98.00;;;;;;5053038;28;20116;-73
2022/10/26 05:01:30;;;;;;;12.52;2.13;;;17.70;97.10;;;;;;5046098;28;20721;-73
2022/10/26 05:03:56;;;;;;;3.00;1.30;;;17.70;97.70;;;;;;5049533;28;20033;-71
2022/10/26 05:06:22;;;;;;;6.97;1.98;;;17.60;97.90;;;;;;5047411;28;20485;-69
2022/10/26 05:08:48;;;;;;;5.32;1.27;;;17.70;98.00;;;;;;5042887;28;20461;-70
2022/10/26 05:11:13;;;;;;;7.45;1.80;;;17.60;98.10;;;;;;5047071;28;20485;-71
2022/10/26 05:13:39;;;;;;;4.25;1.65;;;17.60;98.10;;;;;;5047348;28;20033;-73
2022/10/26 05:16:06;;;;;;;5.20;1.83;;;17.60;98.10;;;;;;5046568;28;20072;-70
2022/10/26 05:18:31;;;;;;;5.85;1.17;;;17.60;98.20;;;;;;5032971;28;20021;-71
2022/10/26 05:20:58;;;;;;;6.38;1.88;;;17.60;98.20;;;;;;5049524;28;20537;-71
2022/10/26 05:23:24;;;;;;;8.75;1.98;;;17.50;98.30;;;;;;5039668;28;20354;-71
2022/10/26 05:25:49;;;;;;;7.40;1.70;;;17.50;98.30;;;;;;5041621;28;20104;-73
2022/10/26 05:28:16;;;;;;;7.57;1.85;;;17.60;98.30;;;;;;5049107;28;20112;-71
2022/10/26 05:30:43;;;;;;;5.20;1.50;;;17.60;98.30;;;;;;5043640;28;20048;-70
2022/10/26 05:33:10;;;;;;;4.88;1.40;;;17.60;98.30;;;;;;5038861;28;20030;-71
2022/10/26 05:35:37;;;;;;;4.30;1.88;;;17.70;98.30;;;;;;5035514;28;20037;-70
2022/10/26 05:38:10;;;;;;;6.78;1.92;;;17.70;98.30;;;;;;5047994;28;20078;-71
2022/10/26 05:40:36;;;;;;;4.55;1.50;;;17.50;98.40;;;;;;5047004;28;20033;-73
2022/10/26 05:43:02;;;;;;;3.88;1.70;;;17.50;98.60;;;;;;5048490;28;20021;-70
2022/10/26 05:45:28;;;;;;;3.03;1.50;;;17.50;98.70;;;;;;5043326;28;20033;-70
2022/10/26 05:47:54;;;;;;;2.97;1.42;;;17.50;98.80;;;;;;5052127;28;20480;-72
2022/10/26 05:50:20;;;;;;;7.22;1.65;;;17.60;98.70;;;;;;5044881;28;20525;-72
2022/10/26 05:52:47;;;;;;;7.18;1.55;;;17.60;98.70;;;;;;5048344;28;20031;-73
2022/10/26 05:55:15;;;;;;;5.47;1.67;;;17.60;98.70;;;;;;5052579;28;20033;-73
2022/10/26 05:57:42;;;;;;;5.68;2.15;;;17.60;98.60;;;;;;5042024;28;20021;-72
2022/10/26 06:00:22;;;;;;;3.75;1.55;;;17.60;98.80;;;;;;5047471;28;20032;-73
2022/10/26 06:03:15;;;;;;;3.78;1.80;;;17.60;98.80;;;;;;5048581;28;20108;-73
2022/10/26 06:06:04;;;;;;;4.05;1.52;;;17.60;98.80;;;;;;5052101;28;20485;-72
2022/10/26 06:08:30;;;;;;;6.05;1.65;;;17.60;98.70;;;;;;5043040;28;20100;-73
2022/10/26 06:11:01;;;;;;;3.17;1.25;;;17.60;99.00;;;;;;5035262;28;20121;-73
2022/10/26 06:13:27;;;;;;;10.02;2.17;;;17.50;99.40;;;;;;5042782;28;20029;-73
2022/10/26 06:16:05;;;;;;;4.55;1.23;;;17.50;99.20;;;;;;5044389;28;20017;-71
2022/10/26 06:18:52;;;;;;;5.35;1.95;;;17.60;99.20;;;;;;5031607;28;20025;-72
2022/10/26 06:21:33;;;;;;;6.20;2.05;;;17.50;99.30;;;;;;5032821;28;20505;-72
2022/10/26 06:24:21;;;;;;;5.50;1.85;;;17.60;99.10;;;;;;5031279;28;20057;-71
2022/10/26 06:27:02;;;;;;;4.68;2.00;;;17.60;99.20;;;;;;5031178;28;20034;-72
2022/10/26 06:29:54;;;;;;;8.20;1.67;;;17.60;99.20;;;;;;5031822;28;20040;-72
2022/10/26 06:32:23;;;;;;;5.40;1.48;;;17.60;99.30;;;;;;5033815;28;20017;-72
2022/10/26 06:34:51;;;;;;;6.75;1.40;;;17.60;99.20;;;;;;5035719;28;20036;-72
2022/10/26 06:37:18;;;;;;;5.22;1.73;;;17.60;99.20;;;;;;5035753;28;20370;-72
2022/10/26 06:39:46;;;;;;;2.90;1.33;;;17.60;99.20;;;;;;5035575;28;20505;-72
2022/10/26 06:42:12;;;;;;;3.47;1.50;;;17.70;99.20;;;;;;5035835;28;20041;-72
2022/10/26 06:44:38;;;;;;;6.95;1.65;;;17.60;99.10;;;;;;5035304;28;20045;-72
2022/10/26 06:47:17;;;;;;;8.00;2.15;;;17.60;99.00;;;;;;5035325;28;20033;-72
2022/10/26 06:49:58;;;;;;;5.18;1.60;;;17.60;99.10;;;;;;5035397;28;20029;-72
2022/10/26 06:52:36;;;;;;;8.40;1.80;;;17.60;99.10;;;;;;5035606;28;20028;-72
2022/10/26 06:55:04;;;;;;;5.13;1.58;;;17.60;99.20;;;;;;5034256;28;20108;-72
2022/10/26 06:57:35;;;;;;;4.10;1.63;;;17.60;99.30;;;;;;5035311;28;20029;-71
2022/10/26 07:00:19;;;;;;;4.15;1.38;;;17.60;99.40;;;;;;5035060;28;20029;-72
2022/10/26 07:02:45;;;;;;;5.43;1.95;;;17.60;99.50;;;;;;5035006;28;20018;-72
2022/10/26 07:05:11;;;;;;;2.97;1.30;;;17.60;99.50;;;;;;5035178;28;20040;-72
2022/10/26 07:07:46;;;;;;;3.15;1.17;;;17.60;99.50;;;;;;5035238;28;20080;-72
2022/10/26 07:10:12;;;;;;;4.15;1.27;;;17.60;99.60;;;;;;5034901;28;20034;-72
2022/10/26 07:12:38;;;;;;;4.57;1.70;;;17.60;99.70;;;;;;5035098;28;20406;-72
2022/10/26 07:15:07;;;;;;;6.63;1.63;;;17.60;99.60;;;;;;5034808;28;20033;-72
2022/10/26 07:17:45;;;;;;;5.10;1.60;;;17.70;99.60;;;;;;5034822;28;20017;-73
2022/10/26 07:20:12;;;;;;;4.30;1.63;;;17.60;99.70;;;;;;5034867;28;20068;-72
2022/10/26 07:22:37;;;;;;;5.50;1.25;;;17.60;99.70;;;;;;5034834;28;20462;-72
2022/10/26 07:25:04;;;;;;;3.38;1.15;;;17.60;99.70;;;;;;5034164;28;20051;-72
2022/10/26 07:27:29;;;;;;;6.47;1.42;;;17.60;99.70;;;;;;5034780;28;20097;-72
2022/10/26 07:29:55;;;;;;;3.92;1.45;;;17.70;99.60;;;;;;5034391;28;20124;-73
2022/10/26 07:32:21;;;;;;;4.18;1.80;;;17.70;99.80;;;;;;5034747;28;20021;-72
2022/10/26 07:34:47;;;;;;;4.47;1.23;;;17.70;99.70;;;;;;5034678;28;20552;-71
2022/10/26 07:37:12;;;;;;;8.55;2.10;;;17.70;99.70;;;;;;5034680;28;20041;-72
2022/10/26 07:39:38;;;;;;;3.92;1.50;;;17.70;99.80;;;;;;5034258;28;20478;-72
2022/10/26 07:42:03;;;;;;;4.78;1.27;;;17.70;99.80;;;;;;5034637;28;20387;-72
2022/10/26 07:44:29;;;;;;;4.13;1.50;;;17.70;99.80;;;;;;5033187;28;20026;-72
2022/10/26 07:46:54;;;;;;;3.47;1.30;;;17.70;99.80;;;;;;5034257;28;20026;-72
2022/10/26 07:49:20;;;;;;;5.95;1.50;;;17.70;99.80;;;;;;5034404;28;20034;-71
2022/10/26 07:51:46;;;;;;;4.00;1.33;;;17.70;99.90;;;;;;5034254;28;20033;-71
2022/10/26 07:54:11;;;;;;;2.75;1.30;;;17.70;99.90;;;;;;5034289;28;20087;-70
2022/10/26 07:56:37;;;;;;;8.05;1.50;;;17.70;99.90;;;;;;5034147;28;20025;-72
2022/10/26 07:59:02;;;;;;;5.90;1.88;;;17.70;99.90;;;;;;5033725;28;20029;-72
2022/10/26 08:01:28;;;;;;;4.25;1.38;;;17.80;99.90;;;;;;5034114;28;20096;-72
2022/10/26 08:03:54;;;;;;;3.55;1.40;;;17.70;99.90;;;;;;5034123;28;20026;-72
2022/10/26 08:06:23;;;;;;;3.15;1.30;;;17.80;99.90;;;;;;5034100;28;20025;-70
2022/10/26 08:08:50;;;;;;;4.90;1.35;;;17.80;99.90;;;;;;5034013;28;20049;-72
2022/10/26 08:11:16;;;;;;;3.28;1.55;;;17.70;99.90;;;;;;5033473;28;20076;-72
2022/10/26 08:13:42;;;;;;;5.22;1.33;;;17.80;99.90;;;;;;5033681;28;20478;-72
2022/10/26 08:16:08;;;;;;;5.07;1.80;;;17.80;99.90;;;;;;5033577;28;20096;-71
2022/10/26 08:18:33;;;;;;;5.55;1.40;;;17.80;99.90;;;;;;5033956;28;20389;-72
2022/10/26 08:21:08;;;;;;;4.90;1.65;;;17.80;99.90;;;;;;5033745;28;20026;-72
2022/10/26 08:23:33;;;;;;;5.68;1.52;;;17.80;99.90;;;;;;5033913;28;20470;-72
2022/10/26 08:26:00;;;;;;;3.33;1.70;;;17.80;99.90;;;;;;5033369;28;20032;-72
2022/10/26 08:28:27;;;;;;;4.22;1.38;;;17.80;99.90;;;;;;5033553;28;20021;-72
2022/10/26 08:30:52;;;;;;;2.40;1.15;;;17.90;99.90;;;;;;5033370;28;20047;-73
2022/10/26 08:33:18;;;;;;;5.50;1.85;;;17.90;99.90;;;;;;5033415;28;20013;-72
2022/10/26 08:35:43;;;;;;;2.80;1.33;;;17.80;99.90;;;;;;5032263;28;20033;-72
2022/10/26 08:38:09;;;;;;;2.45;1.15;;;17.80;99.90;;;;;;5033262;28;20033;-73
2022/10/26 08:40:38;;;;;;;2.63;1.00;;;17.90;99.90;;;;;;5033382;28;20038;-72
2022/10/26 08:43:22;;;;;;;5.53;1.63;;;17.80;99.90;;;;;;5033286;28;20022;-72
2022/10/26 08:46:08;;;;;;;4.28;1.50;;;17.90;99.90;;;;;;5033355;28;20025;-72
2022/10/26 08:48:38;;;;;;;3.13;1.30;;;17.80;99.90;;;;;;5033344;28;20044;-72
2022/10/26 08:51:18;;;;;;;3.60;1.58;;;17.90;99.90;;;;;;5033290;28;20026;-72
2022/10/26 08:54:15;;;;;;;5.85;1.50;;;17.90;99.90;;;;;;5033278;28;20105;-72
2022/10/26 08:56:49;;;;;;;3.85;1.67;;;17.90;99.90;;;;;;5032710;28;20163;-72
2022/10/26 08:59:48;;;;;;;3.50;1.50;;;17.90;99.90;;;;;;5033100;28;20022;-72
2022/10/26 09:02:15;;;;;;;3.92;1.00;;;17.90;99.90;;;;;;5033208;28;20057;-73
2022/10/26 09:04:41;;;;;;;3.53;1.40;;;18.00;99.90;;;;;;5033103;28;20072;-72
2022/10/26 09:07:27;;;;;;;4.07;1.23;;;18.00;99.90;;;;;;5031720;28;20029;-72
2022/10/26 09:10:05;;;;;;;4.38;1.52;;;18.00;99.90;;;;;;5032915;28;20034;-72
2022/10/26 09:12:48;;;;;;;3.17;1.35;;;18.00;99.90;;;;;;5032552;28;20381;-72
2022/10/26 09:15:25;;;;;;;3.95;1.40;;;18.00;99.90;;;;;;5033067;28;20032;-72
2022/10/26 09:17:56;;;;;;;3.72;1.30;;;18.00;99.90;;;;;;5032624;28;20056;-71
2022/10/26 09:21:07;;;;;;;2.85;1.42;;;18.00;99.90;;;;;;5031805;28;20187;-73
2022/10/26 09:24:04;;;;;;;3.60;1.33;;;18.10;99.90;;;;;;4971960;28;20027;-72
2022/10/26 09:27:04;;;;;;;2.58;1.13;;;18.10;99.90;;;;;;4971640;28;20042;-72
2022/10/26 09:29:37;;;;;;;5.25;1.33;;;18.10;99.90;;;;;;5030174;28;20080;-72
2022/10/26 09:32:05;;;;;;;2.03;1.23;;;18.10;99.90;;;;;;5032661;28;20048;-70
2022/10/26 09:34:35;;;;;;;5.32;1.27;;;18.10;99.90;;;;;;5032763;28;20116;-73
2022/10/26 09:37:24;;;;;;;4.35;1.30;;;18.10;99.90;;;;;;5031313;28;20029;-73
2022/10/26 09:40:04;;;;;;;7.18;1.70;;;18.10;99.90;;;;;;5032625;28;20052;-72
2022/10/26 09:42:48;;;;;;;3.67;1.10;;;18.10;99.90;;;;;;5032226;28;20041;-72
2022/10/26 09:45:36;;;;;;;4.20;1.33;;;18.20;99.90;;;;;;5031380;28;20041;-73
2022/10/26 09:48:18;;;;;;;2.42;1.02;;;18.10;99.90;;;;;;5031192;28;20017;-73
2022/10/26 09:50:47;;;;;;;1.40;0.82;;;18.20;99.90;;;;;;5032691;28;20076;-72
2022/10/26 09:53:13;;;;;;;3.45;1.10;;;18.20;99.90;;;;;;5031296;28;20024;-73
2022/10/26 09:55:43;;;;;;;5.07;1.20;;;18.20;99.90;;;;;;5032201;28;20033;-72
2022/10/26 09:58:22;;;;;;;3.13;1.17;;;18.20;99.90;;;;;;5032740;28;20060;-73
2022/10/26 10:00:47;;;;;;;5.47;1.60;;;18.30;99.90;;;;;;5031388;28;20053;-72
2022/10/26 10:03:27;;;;;;;2.67;1.02;;;18.30;99.90;;;;;;5032474;28;20049;-73
2022/10/26 10:05:53;;;;;;;3.30;1.70;;;18.30;99.90;;;;;;5032958;28;20383;-73
2022/10/26 10:08:24;;;;;;;5.00;1.30;;;18.30;99.90;;;;;;5035836;28;20021;-72
2022/10/26 10:10:54;;;;;;;5.28;1.60;;;18.30;99.90;;;;;;5035818;28;20196;-73
2022/10/26 10:13:21;;;;;;;5.57;1.40;;;18.30;99.90;;;;;;5036298;28;20541;-72
2022/10/26 10:15:57;;;;;;;4.22;1.25;;;18.30;99.90;;;;;;5036158;28;20029;-72
2022/10/26 10:18:23;;;;;;;3.78;1.27;;;18.30;99.90;;;;;;5039539;28;20032;-73
2022/10/26 10:20:52;;;;;;;3.25;1.30;;;18.40;99.90;;;;;;5047073;28;20025;-72
2022/10/26 10:23:28;;;;;;;4.57;1.13;;;18.40;99.90;;;;;;5035932;28;20061;-72
2022/10/26 10:25:59;;;;;;;2.85;1.20;;;18.40;99.90;;;;;;5035727;28;20075;-72
2022/10/26 10:28:26;;;;;;;5.10;1.30;;;18.40;99.90;;;;;;5046597;28;20033;-72
2022/10/26 10:31:00;;;;;;;4.05;1.20;;;18.50;99.90;;;;;;5051542;28;20032;-72
2022/10/26 10:33:40;;;;;;;5.53;1.27;;;18.40;99.90;;;;;;5048016;28;20025;-72
2022/10/26 10:36:15;;;;;;;4.63;1.48;;;18.50;99.90;;;;;;5051609;28;20098;-72
2022/10/26 10:38:47;;;;;;;3.40;1.48;;;18.40;99.90;;;;;;5037218;28;20551;-73
2022/10/26 10:41:26;;;;;;;9.85;2.20;;;18.50;99.90;;;;;;5049710;28;20470;-72
2022/10/26 10:43:56;;;;;;;8.90;1.77;;;18.60;99.90;;;;;;5040917;28;20048;-72
2022/10/26 10:46:25;;;;;;;4.57;1.67;;;18.60;99.90;;;;;;5045208;28;20052;-72
2022/10/26 10:49:02;;;;;;;6.95;1.77;;;18.60;99.90;;;;;;5052843;28;20040;-72
2022/10/26 10:51:34;;;;;;;6.88;1.92;;;18.60;99.90;;;;;;5053330;28;20029;-72
2022/10/26 10:53:59;;;;;;;10.50;2.55;;;18.60;99.90;;;;;;5045492;28;20059;-71
2022/10/26 10:56:28;;;;;;;4.35;1.40;;;18.60;99.90;;;;;;5048956;28;20410;-72
2022/10/26 10:59:12;;;;;;;7.65;1.52;;;18.60;99.90;;;;;;5052686;28;20040;-73
2022/10/26 11:01:44;;;;;;;5.28;1.45;;;18.60;99.90;;;;;;5049613;28;20021;-73
2022/10/26 11:04:32;;;;;;;8.82;1.95;;;18.60;99.90;;;;;;5043873;28;20112;-73
2022/10/26 11:07:01;;;;;;;6.88;1.40;;;18.60;99.90;;;;;;5044001;28;20187;-72
2022/10/26 11:09:31;;;;;;;5.30;1.88;;;18.60;99.90;;;;;;5044645;28;20257;-68
2022/10/26 11:12:36;;;;;;;6.10;1.63;;;18.70;99.90;;;;;;5045070;28;20034;-70
2022/10/26 11:15:07;;;;;;;5.53;1.58;;;18.70;99.90;;;;;;4992167;28;20046;-71
2022/10/26 11:17:54;;;;;;;4.93;1.40;;;18.70;99.90;;;;;;5006211;28;20022;-72
2022/10/26 11:20:24;;;;;;;5.57;1.73;;;18.80;99.90;;;;;;5035974;28;20127;-73
2022/10/26 11:22:54;;;;;;;5.30;1.33;;;18.80;99.90;;;;;;5041629;28;20153;-70
2022/10/26 11:25:41;;;;;;;3.13;1.27;;;18.80;99.90;;;;;;5044880;28;20047;-70
2022/10/26 11:28:17;;;;;;;4.07;0.88;;;18.80;99.90;;;;;;5040749;28;20885;-71
2022/10/26 11:30:50;;;;;;;4.85;1.42;;;18.90;99.90;;;;;;5044585;28;20043;-72
2022/10/26 11:33:31;;;;;;;4.05;1.20;;;19.00;99.90;;;;;;5037828;28;20048;-72
2022/10/26 11:36:03;;;;;;;6.13;1.38;;;19.00;99.90;;;;;;5043831;28;20036;-69
2022/10/26 11:38:48;;;;;;;5.90;1.35;;;19.00;99.90;;;;;;5041487;28;20029;-71
2022/10/26 11:41:29;;;;;;;4.28;1.10;;;19.00;99.90;;;;;;5041100;28;20405;-70
2022/10/26 11:44:16;;;;;;;5.32;1.35;;;19.10;99.90;;;;;;5046649;28;20071;-71
2022/10/26 11:46:47;;;;;;;4.53;1.02;;;19.10;99.90;;;;;;5039022;28;20324;-70
2022/10/26 11:49:16;;;;;;;3.60;1.33;;;19.10;99.90;;;;;;5047050;28;20072;-71
2022/10/26 11:51:55;;;;;;;2.72;1.02;;;19.20;99.90;;;;;;5037501;28;20028;-72
2022/10/26 11:54:39;;;;;;;5.03;1.35;;;19.20;99.90;;;;;;5047511;28;20401;-72
2022/10/26 11:57:05;;;;;;;5.65;1.30;;;19.30;99.90;;;;;;5042398;28;20103;-71
2022/10/26 11:59:36;;;;;;;4.78;1.02;;;19.20;99.90;;;;;;5050236;28;20100;-72
2022/10/26 12:02:11;;;;;;;4.50;1.05;;;19.30;99.90;;;;;;5045266;28;20056;-71
2022/10/26 12:04:39;;;;;;;2.55;1.00;;;19.40;99.90;;;;;;5042110;28;20029;-72
2022/10/26 12:07:29;;;;;;;2.88;1.23;;;19.40;99.90;;;;;;5048728;28;20029;-70
2022/10/26 12:09:56;;;;;;;7.28;1.77;;;19.60;99.90;;;;;;5041903;28;20056;-71
2022/10/26 12:12:37;;;;;;;4.28;1.20;;;19.50;99.90;;;;;;5045930;28;20025;-73
2022/10/26 12:15:15;;;;;;;3.80;1.27;;;19.50;99.90;;;;;;5045064;28;20024;-72
2022/10/26 12:17:51;;;;;;;3.65;1.17;;;19.50;99.90;;;;;;5046958;28;20056;-72
2022/10/26 12:20:45;;;;;;;4.80;1.40;;;19.50;99.90;;;;;;5037979;28;20021;-70
2022/10/26 12:23:12;;;;;;;6.03;1.52;;;19.60;99.80;;;;;;5044897;28;20029;-70
2022/10/26 12:25:38;;;;;;;6.72;1.33;;;19.50;99.80;;;;;;5030643;28;20040;-71
2022/10/26 12:28:04;;;;;;;3.03;0.90;;;19.50;99.90;;;;;;5031387;28;20536;-70
2022/10/26 12:30:32;;;;;;;3.35;1.10;;;19.60;99.90;;;;;;5041635;28;20074;-72
2022/10/26 12:32:59;;;;;;;7.55;1.30;;;19.60;99.90;;;;;;5050033;28;20032;-70
2022/10/26 12:35:27;;;;;;;6.93;1.10;;;19.60;99.90;;;;;;5049018;28;20021;-71
2022/10/26 12:37:53;;;;;;;6.18;1.40;;;19.60;99.90;;;;;;5051091;28;20029;-71
2022/10/26 12:40:33;;;;;;;5.45;0.90;;;19.60;99.90;;;;;;5052251;28;20025;-71
2022/10/26 12:43:21;;;;;;;4.75;1.40;;;19.50;99.90;;;;;;5050409;28;20040;-70
2022/10/26 12:46:12;;;;;;;5.00;1.42;;;19.60;99.90;;;;;;5031528;28;20079;-71
2022/10/26 12:48:43;;;;;;;4.03;1.05;;;19.60;99.90;;;;;;5047152;28;20028;-71
2022/10/26 12:51:20;;;;;;;5.47;1.17;;;19.60;99.90;;;;;;5045041;28;20049;-70
2022/10/26 12:54:19;;;;;;;4.53;1.27;;;19.60;99.90;;;;;;5039306;28;20029;-71
2022/10/26 12:56:55;;;;;;;4.72;0.90;;;19.80;99.90;;;;;;5044723;28;20083;-70
2022/10/26 12:59:23;;;;;;;4.70;0.93;;;19.80;99.90;;;;;;5046662;28;20017;-70
2022/10/26 13:02:04;;;;;;;5.60;0.95;;;19.90;99.90;;;;;;5038945;28;20497;-71
2022/10/26 13:04:41;;;;;;;4.22;1.05;;;19.90;99.90;;;;;;5043060;28;20044;-71
2022/10/26 13:07:21;;;;;;;4.95;1.23;;;19.90;99.90;;;;;;5043218;28;20541;-70